Etusivu
METAR-TAF:

METAR-TAF

Lentoasemat :

Alturas Municipal Airport

Alturas, Kalifornia, Yhdysvallat

Leveyspiiri: 41-29-29N, Pituuspiiri: 120-33-52W, korkeus merenpinnasta: 1333 m

Tämänhetkinen sää

Tämä raportti tehtiin 29 minuuttia sitten, kello 13.55 UTC
tyyntä
Lämpötila 7°C
Kosteus 70%
Ilmanpaine 1019 hPa
Näkyvyys: 16.1 km
Pilvistä 3400 ft:n korkeudessa

METAR: KAAT 251355Z AUTO 00000KT 10SM OVC034 07/02 A3008 RMK AO2 SLP165 T00670022 $

Aika: 07:24 (14:24 UTC)


TAF: puuttuu

Säähavainnot ja -ennusteet yli 4000 lentoasemalta (METAR- ja TAF-raportit).

Käytössä olevat sääasemat on merkitty karttaan keltaisilla ja punaisilla pisteillä.

Aseta hiiri pisteen päälle nähdäksesi sääaseman nimen.

Klikkaa sitten nähdäksesi säähavainnot ja -ennusteet.

Kartan vaihtaminen: klikkaa mustalla rastilla varustettuja vihreitä pisteitä, niin voit zoomata sisään; viivalla varustettua vihreää pistettä, niin voit zoomata ulos tai vihreitä nuolia, niin pääset viereisille kartoille.


METAR-TAF: